Tetonia, ID

4:02 AM MDT on May 22, 2015 (GMT -0600)
Driggs | | Change Station
CLOSE
Current Station
Airport
Location: Driggs,
Elevation: 6227 ft
Nearby Weather Stations

Elev 6227 ft 43.74 °N, 111.10 °W | Updated 6 minutes ago

Overcast
Overcast
43 °F
Feels Like 41 °F
N
4
Wind Variable Wind from SE

Today
High -- | Low -- °F
--% Chance of Precip.
Yesterday
High -- | Low -- °F
Precip. -- in
5:52 AM 8:50 PM
Waxing Crescent, 20% visible
Pressure 29.86 in
Visibility 10.0 miles
Clouds Scattered Clouds 4800 ft
Mostly Cloudy 8500 ft
Overcast 12000 ft
Windchill 41 °F
Dew Point 43 °F
Humidity 100%
Rainfall 0.00 in
Snow Depth Not available.
UV 0 out of 12
Pollen 6.90 out of 12
Air Quality Not available.
Flu Activity No Activity
METAR KDIJ 220956Z AUTO 13003KT 10SM SCT048 BKN085 OVC120 06/06 A3001 RMK AO2 T00610061 SLP110

More Conditions Fewer Conditions

Pressure 29.86 in
Visibility 10.0 miles
Clouds Scattered Clouds 4800 ft
Mostly Cloudy 8500 ft
Overcast 12000 ft
Windchill 41 °F
Dew Point 43 °F
Humidity 100%
Rainfall 0.00 in
Snow Depth Not available.
UV 0 out of 12
Pollen 6.90 out of 12
Air Quality Not available.
Flu Activity No Activity
METAR KDIJ 220956Z AUTO 13003KT 10SM SCT048 BKN085 OVC120 06/06 A3001 RMK AO2 T00610061 SLP110

More Conditions Fewer Conditions

10-Day Weather Forecast

Almanac

Astronomy

May. 22, 2015 Rise Set
Actual Time
Civil Twilight
Nautical Twilight
Astronomical Twilight
Moon
Length of Visible Light
Length of Day
Tomorrow will be .
, % of the Moon is Illuminated

Today's Extremes

State Highs State Lows

Community

WunderPhotos

Upload Photos

1,823,197 photos uploaded!

WunderBlogs® & News

Nearby

Air Quality

  Air Quality AQ Index Pollutant
Not available.

Snow Depth

Station Depth Elevation

Earthquake Activity

City Distance Mag. Time & Date
Minimum magnitude displayed is 2.5.

Coastal Water Temperatures

Place Temperature

Stations

Nearby Weather Stations

Station Location Temp. Windchill Dew Point Humidity Wind Precip. Elev Updated Type